sensor_id;sensor_type;location;lat;lon;timestamp;P1;durP1;ratioP1;P2;durP2;ratioP2
54430;SDS011;40342;52.998;5.862;2022-09-14T00:00:39;1.70;;;1.10;;
54430;SDS011;40342;52.998;5.862;2022-09-14T00:03:06;2.80;;;1.33;;
54430;SDS011;40342;52.998;5.862;2022-09-14T00:05:33;5.30;;;1.48;;
54430;SDS011;40342;52.998;5.862;2022-09-14T00:07:59;3.97;;;1.40;;
54430;SDS011;40342;52.998;5.862;2022-09-14T00:10:25;1.77;;;1.25;;
54430;SDS011;40342;52.998;5.862;2022-09-14T00:12:51;2.53;;;1.65;;
54430;SDS011;40342;52.998;5.862;2022-09-14T00:15:16;3.75;;;1.45;;
54430;SDS011;40342;52.998;5.862;2022-09-14T00:17:42;2.95;;;1.40;;
54430;SDS011;40342;52.998;5.862;2022-09-14T00:20:08;4.15;;;1.50;;
54430;SDS011;40342;52.998;5.862;2022-09-14T00:22:34;4.70;;;1.50;;
54430;SDS011;40342;52.998;5.862;2022-09-14T00:24:59;5.40;;;2.08;;
54430;SDS011;40342;52.998;5.862;2022-09-14T00:27:25;5.20;;;1.65;;
54430;SDS011;40342;52.998;5.862;2022-09-14T00:29:50;3.95;;;1.73;;
54430;SDS011;40342;52.998;5.862;2022-09-14T00:32:16;4.65;;;2.08;;
54430;SDS011;40342;52.998;5.862;2022-09-14T00:34:42;3.20;;;1.50;;
54430;SDS011;40342;52.998;5.862;2022-09-14T00:37:08;4.10;;;1.73;;
54430;SDS011;40342;52.998;5.862;2022-09-14T00:39:35;3.15;;;1.35;;
54430;SDS011;40342;52.998;5.862;2022-09-14T00:42:02;1.58;;;1.40;;
54430;SDS011;40342;52.998;5.862;2022-09-14T00:46:59;5.10;;;1.80;;
54430;SDS011;40342;52.998;5.862;2022-09-14T00:49:36;3.33;;;1.70;;
54430;SDS011;40342;52.998;5.862;2022-09-14T00:52:13;4.40;;;1.83;;
54430;SDS011;40342;52.998;5.862;2022-09-14T00:54:46;3.53;;;1.60;;
54430;SDS011;40342;52.998;5.862;2022-09-14T00:57:15;3.28;;;1.70;;
54430;SDS011;40342;52.998;5.862;2022-09-14T00:59:42;2.80;;;1.70;;
54430;SDS011;40342;52.998;5.862;2022-09-14T01:02:09;2.95;;;1.80;;
54430;SDS011;40342;52.998;5.862;2022-09-14T01:04:39;4.25;;;1.90;;
54430;SDS011;40342;52.998;5.862;2022-09-14T01:07:14;5.15;;;1.60;;
54430;SDS011;40342;52.998;5.862;2022-09-14T01:12:39;6.28;;;1.70;;
54430;SDS011;40342;52.998;5.862;2022-09-14T01:15:35;3.60;;;1.85;;
54430;SDS011;40342;52.998;5.862;2022-09-14T01:18:27;2.95;;;2.00;;
54430;SDS011;40342;52.998;5.862;2022-09-14T01:20:57;5.15;;;2.10;;
54430;SDS011;40342;52.998;5.862;2022-09-14T01:23:42;4.18;;;2.55;;
54430;SDS011;40342;52.998;5.862;2022-09-14T01:26:49;6.32;;;2.50;;
54430;SDS011;40342;52.998;5.862;2022-09-14T01:36:58;3.97;;;2.35;;
54430;SDS011;40342;52.998;5.862;2022-09-14T01:39:43;4.47;;;2.53;;
54430;SDS011;40342;52.998;5.862;2022-09-14T01:42:12;5.60;;;2.38;;
54430;SDS011;40342;52.998;5.862;2022-09-14T01:44:41;5.80;;;2.20;;
54430;SDS011;40342;52.998;5.862;2022-09-14T01:47:13;4.38;;;2.20;;
54430;SDS011;40342;52.998;5.862;2022-09-14T01:50:12;8.45;;;2.58;;
54430;SDS011;40342;52.998;5.862;2022-09-14T01:52:45;3.45;;;2.10;;
54430;SDS011;40342;52.998;5.862;2022-09-14T01:55:38;5.40;;;1.95;;
54430;SDS011;40342;52.998;5.862;2022-09-14T01:58:27;5.55;;;2.22;;
54430;SDS011;40342;52.998;5.862;2022-09-14T02:00:59;2.88;;;1.70;;
54430;SDS011;40342;52.998;5.862;2022-09-14T02:03:28;6.53;;;2.17;;
54430;SDS011;40342;52.998;5.862;2022-09-14T02:06:12;3.67;;;2.22;;
54430;SDS011;40342;52.998;5.862;2022-09-14T02:09:00;4.28;;;1.92;;
54430;SDS011;40342;52.998;5.862;2022-09-14T02:11:27;5.00;;;1.90;;
54430;SDS011;40342;52.998;5.862;2022-09-14T02:13:53;2.88;;;1.60;;
54430;SDS011;40342;52.998;5.862;2022-09-14T02:16:19;2.50;;;1.60;;
54430;SDS011;40342;52.998;5.862;2022-09-14T02:18:47;5.03;;;2.00;;
54430;SDS011;40342;52.998;5.862;2022-09-14T02:21:14;4.55;;;2.17;;
54430;SDS011;40342;52.998;5.862;2022-09-14T02:23:45;6.65;;;2.20;;
54430;SDS011;40342;52.998;5.862;2022-09-14T02:26:13;6.30;;;2.17;;
54430;SDS011;40342;52.998;5.862;2022-09-14T02:28:42;6.60;;;2.30;;
54430;SDS011;40342;52.998;5.862;2022-09-14T02:34:11;5.78;;;2.22;;
54430;SDS011;40342;52.998;5.862;2022-09-14T02:36:45;3.13;;;2.10;;
54430;SDS011;40342;52.998;5.862;2022-09-14T02:41:55;5.65;;;2.28;;
54430;SDS011;40342;52.998;5.862;2022-09-14T02:44:34;6.97;;;2.35;;
54430;SDS011;40342;52.998;5.862;2022-09-14T02:47:27;5.10;;;2.45;;
54430;SDS011;40342;52.998;5.862;2022-09-14T02:50:02;4.07;;;2.28;;
54430;SDS011;40342;52.998;5.862;2022-09-14T02:52:39;6.80;;;2.45;;
54430;SDS011;40342;52.998;5.862;2022-09-14T02:55:16;3.63;;;2.15;;
54430;SDS011;40342;52.998;5.862;2022-09-14T02:57:59;4.72;;;1.95;;
54430;SDS011;40342;52.998;5.862;2022-09-14T03:00:28;4.80;;;1.70;;
54430;SDS011;40342;52.998;5.862;2022-09-14T03:02:55;4.75;;;1.65;;
54430;SDS011;40342;52.998;5.862;2022-09-14T03:05:21;4.15;;;1.85;;
54430;SDS011;40342;52.998;5.862;2022-09-14T03:07:47;1.60;;;0.95;;
54430;SDS011;40342;52.998;5.862;2022-09-14T03:10:13;3.88;;;0.90;;
54430;SDS011;40342;52.998;5.862;2022-09-14T03:12:38;2.58;;;0.70;;
54430;SDS011;40342;52.998;5.862;2022-09-14T03:15:04;1.13;;;1.00;;
54430;SDS011;40342;52.998;5.862;2022-09-14T03:17:30;3.22;;;1.40;;
54430;SDS011;40342;52.998;5.862;2022-09-14T03:19:56;2.28;;;1.33;;
54430;SDS011;40342;52.998;5.862;2022-09-14T03:22:22;1.50;;;1.40;;
54430;SDS011;40342;52.998;5.862;2022-09-14T03:24:47;1.38;;;1.23;;
54430;SDS011;40342;52.998;5.862;2022-09-14T03:27:13;1.20;;;0.80;;
54430;SDS011;40342;52.998;5.862;2022-09-14T03:29:39;0.82;;;0.80;;
54430;SDS011;40342;52.998;5.862;2022-09-14T03:32:04;1.63;;;1.33;;
54430;SDS011;40342;52.998;5.862;2022-09-14T03:34:30;3.00;;;1.40;;
54430;SDS011;40342;52.998;5.862;2022-09-14T03:36:55;2.88;;;1.52;;
54430;SDS011;40342;52.998;5.862;2022-09-14T03:39:21;3.50;;;1.83;;
54430;SDS011;40342;52.998;5.862;2022-09-14T03:41:47;4.35;;;2.05;;
54430;SDS011;40342;52.998;5.862;2022-09-14T03:44:12;4.38;;;1.88;;
54430;SDS011;40342;52.998;5.862;2022-09-14T03:46:38;1.95;;;1.60;;
54430;SDS011;40342;52.998;5.862;2022-09-14T03:49:03;5.57;;;2.33;;
54430;SDS011;40342;52.998;5.862;2022-09-14T03:51:29;3.20;;;1.83;;
54430;SDS011;40342;52.998;5.862;2022-09-14T03:53:57;3.92;;;2.15;;
54430;SDS011;40342;52.998;5.862;2022-09-14T03:56:22;3.28;;;1.85;;
54430;SDS011;40342;52.998;5.862;2022-09-14T03:58:48;3.78;;;1.70;;
54430;SDS011;40342;52.998;5.862;2022-09-14T04:01:15;4.35;;;1.73;;
54430;SDS011;40342;52.998;5.862;2022-09-14T04:03:43;3.63;;;2.20;;
54430;SDS011;40342;52.998;5.862;2022-09-14T04:06:09;4.93;;;2.00;;
54430;SDS011;40342;52.998;5.862;2022-09-14T04:08:35;2.95;;;1.83;;
54430;SDS011;40342;52.998;5.862;2022-09-14T04:11:05;5.30;;;2.20;;
54430;SDS011;40342;52.998;5.862;2022-09-14T04:13:32;3.78;;;1.98;;
54430;SDS011;40342;52.998;5.862;2022-09-14T04:15:58;2.28;;;1.60;;
54430;SDS011;40342;52.998;5.862;2022-09-14T04:18:24;3.08;;;1.77;;
54430;SDS011;40342;52.998;5.862;2022-09-14T04:20:54;1.70;;;1.50;;
54430;SDS011;40342;52.998;5.862;2022-09-14T04:23:21;2.40;;;1.90;;
54430;SDS011;40342;52.998;5.862;2022-09-14T04:25:47;2.75;;;1.67;;
54430;SDS011;40342;52.998;5.862;2022-09-14T04:28:12;2.85;;;1.60;;
54430;SDS011;40342;52.998;5.862;2022-09-14T04:30:38;3.05;;;1.83;;
54430;SDS011;40342;52.998;5.862;2022-09-14T04:33:03;7.43;;;2.60;;
54430;SDS011;40342;52.998;5.862;2022-09-14T04:35:29;4.15;;;2.55;;
54430;SDS011;40342;52.998;5.862;2022-09-14T04:37:54;4.90;;;2.30;;
54430;SDS011;40342;52.998;5.862;2022-09-14T04:40:22;4.40;;;2.58;;
54430;SDS011;40342;52.998;5.862;2022-09-14T04:42:48;5.03;;;2.20;;
54430;SDS011;40342;52.998;5.862;2022-09-14T04:45:13;5.00;;;2.05;;
54430;SDS011;40342;52.998;5.862;2022-09-14T04:47:39;4.53;;;2.42;;
54430;SDS011;40342;52.998;5.862;2022-09-14T04:50:04;6.28;;;2.28;;
54430;SDS011;40342;52.998;5.862;2022-09-14T04:52:30;3.95;;;2.30;;
54430;SDS011;40342;52.998;5.862;2022-09-14T04:54:56;5.28;;;2.20;;
54430;SDS011;40342;52.998;5.862;2022-09-14T04:57:21;5.75;;;2.28;;
54430;SDS011;40342;52.998;5.862;2022-09-14T04:59:47;3.33;;;2.10;;
54430;SDS011;40342;52.998;5.862;2022-09-14T05:02:12;6.35;;;2.55;;
54430;SDS011;40342;52.998;5.862;2022-09-14T05:04:38;4.40;;;2.10;;
54430;SDS011;40342;52.998;5.862;2022-09-14T05:07:04;3.97;;;2.22;;
54430;SDS011;40342;52.998;5.862;2022-09-14T05:09:29;3.80;;;1.90;;
54430;SDS011;40342;52.998;5.862;2022-09-14T05:11:57;3.95;;;2.70;;
54430;SDS011;40342;52.998;5.862;2022-09-14T05:14:23;5.38;;;2.28;;
54430;SDS011;40342;52.998;5.862;2022-09-14T05:16:48;5.00;;;2.47;;
54430;SDS011;40342;52.998;5.862;2022-09-14T05:19:15;4.50;;;2.17;;
54430;SDS011;40342;52.998;5.862;2022-09-14T05:21:42;2.83;;;1.70;;
54430;SDS011;40342;52.998;5.862;2022-09-14T05:24:13;3.42;;;1.60;;
54430;SDS011;40342;52.998;5.862;2022-09-14T05:26:41;4.40;;;1.70;;
54430;SDS011;40342;52.998;5.862;2022-09-14T05:29:15;2.50;;;1.92;;
54430;SDS011;40342;52.998;5.862;2022-09-14T05:31:41;2.25;;;1.60;;
54430;SDS011;40342;52.998;5.862;2022-09-14T05:34:08;3.83;;;1.83;;
54430;SDS011;40342;52.998;5.862;2022-09-14T05:36:36;2.72;;;1.90;;
54430;SDS011;40342;52.998;5.862;2022-09-14T05:39:03;2.03;;;1.38;;
54430;SDS011;40342;52.998;5.862;2022-09-14T05:41:30;2.90;;;1.80;;
54430;SDS011;40342;52.998;5.862;2022-09-14T05:43:56;5.18;;;2.10;;
54430;SDS011;40342;52.998;5.862;2022-09-14T05:46:23;2.63;;;1.90;;
54430;SDS011;40342;52.998;5.862;2022-09-14T05:48:49;5.18;;;2.70;;
54430;SDS011;40342;52.998;5.862;2022-09-14T05:51:19;4.60;;;2.10;;
54430;SDS011;40342;52.998;5.862;2022-09-14T05:53:48;4.55;;;1.92;;
54430;SDS011;40342;52.998;5.862;2022-09-14T05:56:14;3.03;;;2.13;;
54430;SDS011;40342;52.998;5.862;2022-09-14T05:58:41;4.18;;;2.10;;
54430;SDS011;40342;52.998;5.862;2022-09-14T06:01:20;2.67;;;2.13;;
54430;SDS011;40342;52.998;5.862;2022-09-14T06:03:47;2.97;;;2.05;;
54430;SDS011;40342;52.998;5.862;2022-09-14T06:06:18;4.03;;;2.40;;
54430;SDS011;40342;52.998;5.862;2022-09-14T06:08:44;6.03;;;2.20;;
54430;SDS011;40342;52.998;5.862;2022-09-14T06:11:14;2.78;;;1.90;;
54430;SDS011;40342;52.998;5.862;2022-09-14T06:13:41;5.45;;;2.20;;
54430;SDS011;40342;52.998;5.862;2022-09-14T06:16:09;5.22;;;2.40;;
54430;SDS011;40342;52.998;5.862;2022-09-14T06:18:37;4.25;;;2.15;;
54430;SDS011;40342;52.998;5.862;2022-09-14T06:21:04;5.15;;;1.95;;
54430;SDS011;40342;52.998;5.862;2022-09-14T06:23:31;3.15;;;2.03;;
54430;SDS011;40342;52.998;5.862;2022-09-14T06:25:58;5.53;;;1.65;;
54430;SDS011;40342;52.998;5.862;2022-09-14T06:28:25;6.65;;;2.40;;
54430;SDS011;40342;52.998;5.862;2022-09-14T06:30:51;5.20;;;2.05;;
54430;SDS011;40342;52.998;5.862;2022-09-14T06:33:19;5.30;;;2.22;;
54430;SDS011;40342;52.998;5.862;2022-09-14T06:35:58;5.13;;;2.22;;
54430;SDS011;40342;52.998;5.862;2022-09-14T06:38:28;6.68;;;2.22;;
54430;SDS011;40342;52.998;5.862;2022-09-14T06:40:58;7.28;;;2.40;;
54430;SDS011;40342;52.998;5.862;2022-09-14T06:43:25;3.15;;;1.95;;
54430;SDS011;40342;52.998;5.862;2022-09-14T06:45:57;4.95;;;1.83;;
54430;SDS011;40342;52.998;5.862;2022-09-14T06:48:25;3.95;;;1.83;;
54430;SDS011;40342;52.998;5.862;2022-09-14T06:50:52;3.17;;;1.75;;
54430;SDS011;40342;52.998;5.862;2022-09-14T06:53:18;3.00;;;1.83;;
54430;SDS011;40342;52.998;5.862;2022-09-14T06:55:44;3.38;;;1.80;;
54430;SDS011;40342;52.998;5.862;2022-09-14T06:58:10;4.75;;;2.40;;
54430;SDS011;40342;52.998;5.862;2022-09-14T07:00:36;5.53;;;2.17;;
54430;SDS011;40342;52.998;5.862;2022-09-14T07:03:01;4.18;;;2.15;;
54430;SDS011;40342;52.998;5.862;2022-09-14T07:05:28;4.88;;;2.50;;
54430;SDS011;40342;52.998;5.862;2022-09-14T07:07:55;4.55;;;1.80;;
54430;SDS011;40342;52.998;5.862;2022-09-14T07:10:21;6.05;;;2.20;;
54430;SDS011;40342;52.998;5.862;2022-09-14T07:12:47;9.18;;;2.35;;
54430;SDS011;40342;52.998;5.862;2022-09-14T07:15:13;5.20;;;2.20;;
54430;SDS011;40342;52.998;5.862;2022-09-14T07:17:38;7.10;;;1.88;;
54430;SDS011;40342;52.998;5.862;2022-09-14T07:20:08;8.93;;;2.13;;
54430;SDS011;40342;52.998;5.862;2022-09-14T07:22:35;5.18;;;1.83;;
54430;SDS011;40342;52.998;5.862;2022-09-14T07:25:01;6.22;;;1.85;;
54430;SDS011;40342;52.998;5.862;2022-09-14T07:27:26;5.40;;;1.85;;
54430;SDS011;40342;52.998;5.862;2022-09-14T07:29:52;4.55;;;1.90;;
54430;SDS011;40342;52.998;5.862;2022-09-14T07:32:18;7.25;;;1.88;;
54430;SDS011;40342;52.998;5.862;2022-09-14T07:34:44;5.85;;;1.80;;
54430;SDS011;40342;52.998;5.862;2022-09-14T07:37:10;3.40;;;1.50;;
54430;SDS011;40342;52.998;5.862;2022-09-14T07:39:36;4.60;;;1.45;;
54430;SDS011;40342;52.998;5.862;2022-09-14T07:42:01;4.63;;;1.35;;
54430;SDS011;40342;52.998;5.862;2022-09-14T07:44:27;4.63;;;1.45;;
54430;SDS011;40342;52.998;5.862;2022-09-14T07:46:52;3.35;;;1.30;;
54430;SDS011;40342;52.998;5.862;2022-09-14T07:49:18;7.25;;;1.52;;
54430;SDS011;40342;52.998;5.862;2022-09-14T07:51:46;4.90;;;1.50;;
54430;SDS011;40342;52.998;5.862;2022-09-14T07:54:13;2.30;;;1.00;;
54430;SDS011;40342;52.998;5.862;2022-09-14T07:56:40;2.75;;;1.25;;
54430;SDS011;40342;52.998;5.862;2022-09-14T07:59:09;3.83;;;1.30;;
54430;SDS011;40342;52.998;5.862;2022-09-14T08:01:36;1.77;;;0.80;;
54430;SDS011;40342;52.998;5.862;2022-09-14T08:04:01;3.63;;;1.23;;
54430;SDS011;40342;52.998;5.862;2022-09-14T08:06:27;5.13;;;1.33;;
54430;SDS011;40342;52.998;5.862;2022-09-14T08:08:54;4.20;;;0.90;;
54430;SDS011;40342;52.998;5.862;2022-09-14T08:11:21;57.35;;;3.25;;
54430;SDS011;40342;52.998;5.862;2022-09-14T08:13:50;2.47;;;0.70;;
54430;SDS011;40342;52.998;5.862;2022-09-14T08:16:18;5.57;;;1.00;;
54430;SDS011;40342;52.998;5.862;2022-09-14T08:18:45;4.05;;;0.95;;
54430;SDS011;40342;52.998;5.862;2022-09-14T08:21:14;2.65;;;1.02;;
54430;SDS011;40342;52.998;5.862;2022-09-14T08:23:41;7.93;;;0.80;;
54430;SDS011;40342;52.998;5.862;2022-09-14T08:26:08;2.92;;;0.82;;
54430;SDS011;40342;52.998;5.862;2022-09-14T08:28:36;2.70;;;0.57;;
54430;SDS011;40342;52.998;5.862;2022-09-14T08:31:07;3.15;;;0.90;;
54430;SDS011;40342;52.998;5.862;2022-09-14T08:33:35;4.97;;;0.80;;
54430;SDS011;40342;52.998;5.862;2022-09-14T08:36:03;6.15;;;0.82;;
54430;SDS011;40342;52.998;5.862;2022-09-14T08:38:30;3.70;;;0.80;;
54430;SDS011;40342;52.998;5.862;2022-09-14T08:40:57;6.60;;;1.40;;
54430;SDS011;40342;52.998;5.862;2022-09-14T08:43:29;3.78;;;0.90;;
54430;SDS011;40342;52.998;5.862;2022-09-14T08:45:57;5.05;;;1.00;;
54430;SDS011;40342;52.998;5.862;2022-09-14T08:48:35;1.80;;;0.57;;
54430;SDS011;40342;52.998;5.862;2022-09-14T08:51:05;4.43;;;1.00;;
54430;SDS011;40342;52.998;5.862;2022-09-14T08:53:32;4.57;;;0.80;;
54430;SDS011;40342;52.998;5.862;2022-09-14T08:56:05;6.88;;;0.80;;
54430;SDS011;40342;52.998;5.862;2022-09-14T08:58:46;5.95;;;1.15;;
54430;SDS011;40342;52.998;5.862;2022-09-14T09:01:34;4.15;;;1.10;;
54430;SDS011;40342;52.998;5.862;2022-09-14T09:06:56;4.63;;;0.70;;
54430;SDS011;40342;52.998;5.862;2022-09-14T09:09:37;4.47;;;0.90;;
54430;SDS011;40342;52.998;5.862;2022-09-14T09:12:04;4.22;;;1.08;;
54430;SDS011;40342;52.998;5.862;2022-09-14T09:14:31;6.15;;;0.95;;
54430;SDS011;40342;52.998;5.862;2022-09-14T09:17:09;4.90;;;0.93;;
54430;SDS011;40342;52.998;5.862;2022-09-14T09:22:39;4.18;;;1.05;;
54430;SDS011;40342;52.998;5.862;2022-09-14T09:25:45;3.55;;;0.65;;
54430;SDS011;40342;52.998;5.862;2022-09-14T09:28:22;3.78;;;0.77;;
54430;SDS011;40342;52.998;5.862;2022-09-14T09:30:50;4.57;;;0.95;;
54430;SDS011;40342;52.998;5.862;2022-09-14T09:33:21;3.72;;;0.70;;
54430;SDS011;40342;52.998;5.862;2022-09-14T09:35:49;2.58;;;0.70;;
54430;SDS011;40342;52.998;5.862;2022-09-14T09:38:18;4.70;;;1.13;;
54430;SDS011;40342;52.998;5.862;2022-09-14T09:41:38;1.88;;;0.80;;
54430;SDS011;40342;52.998;5.862;2022-09-14T09:43:59;2.75;;;0.90;;
54430;SDS011;40342;52.998;5.862;2022-09-14T09:46:30;6.03;;;1.10;;
54430;SDS011;40342;52.998;5.862;2022-09-14T09:49:02;4.97;;;0.93;;
54430;SDS011;40342;52.998;5.862;2022-09-14T09:51:39;3.80;;;1.10;;
54430;SDS011;40342;52.998;5.862;2022-09-14T09:56:38;6.03;;;1.17;;
54430;SDS011;40342;52.998;5.862;2022-09-14T10:07:36;2.60;;;0.75;;
54430;SDS011;40342;52.998;5.862;2022-09-14T10:10:07;3.58;;;0.70;;
54430;SDS011;40342;52.998;5.862;2022-09-14T10:12:35;3.85;;;1.02;;
54430;SDS011;40342;52.998;5.862;2022-09-14T10:15:16;5.13;;;0.70;;
54430;SDS011;40342;52.998;5.862;2022-09-14T10:17:53;2.25;;;0.63;;
54430;SDS011;40342;52.998;5.862;2022-09-14T10:20:35;3.30;;;0.77;;
54430;SDS011;40342;52.998;5.862;2022-09-14T10:23:24;3.53;;;0.90;;
54430;SDS011;40342;52.998;5.862;2022-09-14T10:25:51;4.03;;;0.93;;
54430;SDS011;40342;52.998;5.862;2022-09-14T10:28:38;5.55;;;1.10;;
54430;SDS011;40342;52.998;5.862;2022-09-14T10:31:07;4.10;;;0.70;;
54430;SDS011;40342;52.998;5.862;2022-09-14T10:33:40;4.25;;;0.60;;
54430;SDS011;40342;52.998;5.862;2022-09-14T10:38:57;3.25;;;0.70;;
54430;SDS011;40342;52.998;5.862;2022-09-14T10:46:34;4.15;;;0.70;;
54430;SDS011;40342;52.998;5.862;2022-09-14T10:49:33;2.75;;;0.70;;
54430;SDS011;40342;52.998;5.862;2022-09-14T10:57:30;3.83;;;0.60;;
54430;SDS011;40342;52.998;5.862;2022-09-14T11:00:10;3.65;;;0.60;;
54430;SDS011;40342;52.998;5.862;2022-09-14T11:05:45;3.70;;;0.73;;
54430;SDS011;40342;52.998;5.862;2022-09-14T11:11:05;1.13;;;0.73;;
54430;SDS011;40342;52.998;5.862;2022-09-14T11:17:24;3.63;;;0.68;;
54430;SDS011;40342;52.998;5.862;2022-09-14T11:22:20;3.45;;;0.98;;
54430;SDS011;40342;52.998;5.862;2022-09-14T11:27:50;3.30;;;0.60;;
54430;SDS011;40342;52.998;5.862;2022-09-14T11:30:38;1.35;;;0.40;;
54430;SDS011;40342;52.998;5.862;2022-09-14T11:33:17;4.82;;;1.15;;
54430;SDS011;40342;52.998;5.862;2022-09-14T11:36:11;4.25;;;1.08;;
54430;SDS011;40342;52.998;5.862;2022-09-14T11:38:46;2.97;;;1.00;;
54430;SDS011;40342;52.998;5.862;2022-09-14T11:41:19;5.38;;;0.80;;
54430;SDS011;40342;52.998;5.862;2022-09-14T11:43:58;3.33;;;0.80;;
54430;SDS011;40342;52.998;5.862;2022-09-14T11:46:50;1.75;;;0.68;;
54430;SDS011;40342;52.998;5.862;2022-09-14T11:52:34;5.50;;;1.10;;
54430;SDS011;40342;52.998;5.862;2022-09-14T11:55:00;2.83;;;0.90;;
54430;SDS011;40342;52.998;5.862;2022-09-14T11:59:59;5.10;;;1.10;;
54430;SDS011;40342;52.998;5.862;2022-09-14T12:15:13;4.00;;;1.00;;
54430;SDS011;40342;52.998;5.862;2022-09-14T12:17:41;5.03;;;1.00;;
54430;SDS011;40342;52.998;5.862;2022-09-14T12:23:03;5.40;;;1.17;;
54430;SDS011;40342;52.998;5.862;2022-09-14T12:25:29;4.68;;;1.10;;
54430;SDS011;40342;52.998;5.862;2022-09-14T12:27:55;11.95;;;1.33;;
54430;SDS011;40342;52.998;5.862;2022-09-14T12:36:54;3.88;;;1.05;;
54430;SDS011;40342;52.998;5.862;2022-09-14T12:59:23;3.17;;;0.88;;
54430;SDS011;40342;52.998;5.862;2022-09-14T13:04:37;6.07;;;1.52;;
54430;SDS011;40342;52.998;5.862;2022-09-14T13:07:06;5.68;;;1.08;;
54430;SDS011;40342;52.998;5.862;2022-09-14T13:09:54;5.05;;;0.82;;
54430;SDS011;40342;52.998;5.862;2022-09-14T13:15:07;2.95;;;0.95;;
54430;SDS011;40342;52.998;5.862;2022-09-14T13:20:32;3.65;;;0.98;;
54430;SDS011;40342;52.998;5.862;2022-09-14T13:22:59;3.70;;;0.90;;
54430;SDS011;40342;52.998;5.862;2022-09-14T13:25:32;6.15;;;1.23;;
54430;SDS011;40342;52.998;5.862;2022-09-14T13:28:04;4.18;;;1.10;;
54430;SDS011;40342;52.998;5.862;2022-09-14T13:30:32;2.85;;;0.93;;
54430;SDS011;40342;52.998;5.862;2022-09-14T13:32:59;3.42;;;1.10;;
54430;SDS011;40342;52.998;5.862;2022-09-14T13:35:29;6.22;;;1.00;;
54430;SDS011;40342;52.998;5.862;2022-09-14T13:38:05;2.60;;;1.02;;
54430;SDS011;40342;52.998;5.862;2022-09-14T13:40:33;3.38;;;0.73;;
54430;SDS011;40342;52.998;5.862;2022-09-14T13:43:00;3.55;;;0.90;;
54430;SDS011;40342;52.998;5.862;2022-09-14T13:45:26;1.67;;;0.75;;
54430;SDS011;40342;52.998;5.862;2022-09-14T13:47:54;5.55;;;1.00;;
54430;SDS011;40342;52.998;5.862;2022-09-14T13:50:21;5.97;;;0.75;;
54430;SDS011;40342;52.998;5.862;2022-09-14T13:52:49;4.75;;;1.00;;
54430;SDS011;40342;52.998;5.862;2022-09-14T14:00:49;4.63;;;0.80;;
54430;SDS011;40342;52.998;5.862;2022-09-14T14:03:35;2.67;;;0.80;;
54430;SDS011;40342;52.998;5.862;2022-09-14T14:06:18;3.13;;;0.88;;
54430;SDS011;40342;52.998;5.862;2022-09-14T14:09:02;5.15;;;0.93;;
54430;SDS011;40342;52.998;5.862;2022-09-14T14:11:31;6.75;;;0.98;;
54430;SDS011;40342;52.998;5.862;2022-09-14T14:19:55;3.83;;;0.98;;
54430;SDS011;40342;52.998;5.862;2022-09-14T14:22:26;1.75;;;0.70;;
54430;SDS011;40342;52.998;5.862;2022-09-14T14:24:57;7.40;;;1.23;;
54430;SDS011;40342;52.998;5.862;2022-09-14T14:27:36;5.68;;;1.20;;
54430;SDS011;40342;52.998;5.862;2022-09-14T14:30:25;6.93;;;1.23;;
54430;SDS011;40342;52.998;5.862;2022-09-14T14:32:52;18.17;;;1.92;;
54430;SDS011;40342;52.998;5.862;2022-09-14T14:35:21;14.15;;;1.38;;
54430;SDS011;40342;52.998;5.862;2022-09-14T14:37:49;17.98;;;1.70;;
54430;SDS011;40342;52.998;5.862;2022-09-14T14:40:16;8.88;;;1.08;;
54430;SDS011;40342;52.998;5.862;2022-09-14T14:42:42;5.35;;;1.10;;
54430;SDS011;40342;52.998;5.862;2022-09-14T14:45:15;21.85;;;2.00;;
54430;SDS011;40342;52.998;5.862;2022-09-14T14:47:46;4.28;;;0.90;;
54430;SDS011;40342;52.998;5.862;2022-09-14T14:50:19;24.23;;;1.70;;
54430;SDS011;40342;52.998;5.862;2022-09-14T14:52:46;13.65;;;1.45;;
54430;SDS011;40342;52.998;5.862;2022-09-14T14:55:12;6.05;;;1.00;;
54430;SDS011;40342;52.998;5.862;2022-09-14T14:57:39;9.93;;;1.55;;
54430;SDS011;40342;52.998;5.862;2022-09-14T15:00:05;21.83;;;1.65;;
54430;SDS011;40342;52.998;5.862;2022-09-14T15:02:41;3.42;;;1.00;;
54430;SDS011;40342;52.998;5.862;2022-09-14T15:05:07;4.47;;;1.02;;
54430;SDS011;40342;52.998;5.862;2022-09-14T15:07:33;2.33;;;0.73;;
54430;SDS011;40342;52.998;5.862;2022-09-14T15:09:59;4.13;;;0.90;;
54430;SDS011;40342;52.998;5.862;2022-09-14T15:12:24;2.58;;;0.93;;
54430;SDS011;40342;52.998;5.862;2022-09-14T15:14:50;5.68;;;0.60;;
54430;SDS011;40342;52.998;5.862;2022-09-14T15:17:16;5.05;;;1.00;;
54430;SDS011;40342;52.998;5.862;2022-09-14T15:19:41;3.83;;;0.82;;
54430;SDS011;40342;52.998;5.862;2022-09-14T15:22:08;2.50;;;0.90;;
54430;SDS011;40342;52.998;5.862;2022-09-14T15:24:34;3.08;;;0.95;;
54430;SDS011;40342;52.998;5.862;2022-09-14T15:27:00;2.85;;;0.80;;
54430;SDS011;40342;52.998;5.862;2022-09-14T15:29:25;3.53;;;0.60;;
54430;SDS011;40342;52.998;5.862;2022-09-14T15:31:51;2.72;;;0.70;;
54430;SDS011;40342;52.998;5.862;2022-09-14T15:34:17;1.98;;;1.00;;
54430;SDS011;40342;52.998;5.862;2022-09-14T15:36:43;5.50;;;1.08;;
54430;SDS011;40342;52.998;5.862;2022-09-14T15:39:18;1.90;;;0.82;;
54430;SDS011;40342;52.998;5.862;2022-09-14T15:41:44;3.00;;;0.90;;
54430;SDS011;40342;52.998;5.862;2022-09-14T15:44:11;3.15;;;0.75;;
54430;SDS011;40342;52.998;5.862;2022-09-14T15:46:37;2.58;;;0.70;;
54430;SDS011;40342;52.998;5.862;2022-09-14T15:49:05;4.10;;;0.80;;
54430;SDS011;40342;52.998;5.862;2022-09-14T15:51:33;4.25;;;0.90;;
54430;SDS011;40342;52.998;5.862;2022-09-14T15:53:59;2.65;;;0.68;;
54430;SDS011;40342;52.998;5.862;2022-09-14T15:56:25;3.60;;;0.75;;
54430;SDS011;40342;52.998;5.862;2022-09-14T15:58:51;5.13;;;1.05;;
54430;SDS011;40342;52.998;5.862;2022-09-14T16:01:17;2.45;;;0.88;;
54430;SDS011;40342;52.998;5.862;2022-09-14T16:03:43;2.53;;;0.73;;
54430;SDS011;40342;52.998;5.862;2022-09-14T16:06:09;4.20;;;0.85;;
54430;SDS011;40342;52.998;5.862;2022-09-14T16:08:36;5.20;;;0.70;;
54430;SDS011;40342;52.998;5.862;2022-09-14T16:11:03;4.28;;;0.70;;
54430;SDS011;40342;52.998;5.862;2022-09-14T16:13:29;3.70;;;0.80;;
54430;SDS011;40342;52.998;5.862;2022-09-14T16:16:06;2.88;;;0.60;;
54430;SDS011;40342;52.998;5.862;2022-09-14T16:18:34;1.88;;;0.55;;
54430;SDS011;40342;52.998;5.862;2022-09-14T16:21:06;2.85;;;0.60;;
54430;SDS011;40342;52.998;5.862;2022-09-14T16:23:35;3.90;;;0.65;;
54430;SDS011;40342;52.998;5.862;2022-09-14T16:26:06;1.90;;;0.68;;
54430;SDS011;40342;52.998;5.862;2022-09-14T16:28:34;3.45;;;1.40;;
54430;SDS011;40342;52.998;5.862;2022-09-14T16:31:13;1.73;;;0.50;;
54430;SDS011;40342;52.998;5.862;2022-09-14T16:33:44;2.17;;;0.60;;
54430;SDS011;40342;52.998;5.862;2022-09-14T16:36:12;2.13;;;0.50;;
54430;SDS011;40342;52.998;5.862;2022-09-14T16:38:41;2.00;;;0.55;;
54430;SDS011;40342;52.998;5.862;2022-09-14T16:41:08;2.60;;;0.55;;
54430;SDS011;40342;52.998;5.862;2022-09-14T16:43:35;2.03;;;0.50;;
54430;SDS011;40342;52.998;5.862;2022-09-14T16:46:09;2.92;;;0.57;;
54430;SDS011;40342;52.998;5.862;2022-09-14T16:48:38;3.58;;;0.65;;
54430;SDS011;40342;52.998;5.862;2022-09-14T16:51:05;1.40;;;0.60;;
54430;SDS011;40342;52.998;5.862;2022-09-14T16:53:32;4.10;;;0.70;;
54430;SDS011;40342;52.998;5.862;2022-09-14T16:55:59;5.05;;;0.52;;
54430;SDS011;40342;52.998;5.862;2022-09-14T16:58:29;0.95;;;0.40;;
54430;SDS011;40342;52.998;5.862;2022-09-14T17:00:56;2.70;;;0.73;;
54430;SDS011;40342;52.998;5.862;2022-09-14T17:03:27;3.30;;;0.70;;
54430;SDS011;40342;52.998;5.862;2022-09-14T17:05:58;1.90;;;0.50;;
54430;SDS011;40342;52.998;5.862;2022-09-14T17:08:24;2.13;;;0.55;;
54430;SDS011;40342;52.998;5.862;2022-09-14T17:10:50;2.90;;;0.65;;
54430;SDS011;40342;52.998;5.862;2022-09-14T17:13:16;4.32;;;0.60;;
54430;SDS011;40342;52.998;5.862;2022-09-14T17:15:41;1.58;;;0.60;;